Time;durP1;ratioP1;P1;durP2;ratioP2;P2;SDS_P1;SDS_P2;PMS_P1;PMS_P2;Temp;Humidity;BMP_temperature;BMP_pressure;BME280_temperature;BME280_humidity;BME280_pressure;Samples;Min_cycle;Max_cycle;Signal;HPM_P1;HPM_P2
2022/01/12 00:02:23;;;;;;;1.48;1.38;;;;;;;-13.44;73.70;100365.34;5051614;28;20102;-81
2022/01/12 00:04:50;;;;;;;1.50;1.40;;;;;;;-13.45;73.90;100367.09;5051954;28;20542;-80
2022/01/12 00:07:17;;;;;;;1.50;1.40;;;;;;;-13.42;73.94;100379.13;5051096;28;20126;-80
2022/01/12 00:09:44;;;;;;;1.40;1.30;;;;;;;-13.43;73.96;100374.84;5051502;28;20057;-80
2022/01/12 00:12:12;;;;;;;1.50;1.40;;;;;;;-13.45;74.18;100374.03;5051514;28;20526;-80
2022/01/12 00:14:39;;;;;;;1.38;1.27;;;;;;;-13.45;74.20;100382.69;5048420;28;20055;-81
2022/01/12 00:17:06;;;;;;;1.50;1.40;;;;;;;-13.45;74.25;100387.88;5051348;28;20456;-81
2022/01/12 00:19:33;;;;;;;1.40;1.30;;;;;;;-13.44;74.11;100388.72;5045121;28;20118;-80
2022/01/12 00:22:00;;;;;;;1.40;1.30;;;;;;;-13.44;73.99;100388.72;5039957;28;20052;-81
2022/01/12 00:24:40;;;;;;;1.55;1.45;;;;;;;-13.43;74.24;100385.22;5040106;28;20115;-80
2022/01/12 00:35:25;;;;;;;1.45;1.35;;;;;;;-13.58;73.79;100366.72;5032550;28;20532;-82
2022/01/12 00:37:52;;;;;;;1.30;1.20;;;;;;;-13.60;74.08;100370.28;5014318;28;20494;-81
2022/01/12 00:40:20;;;;;;;1.45;1.35;;;;;;;-13.61;74.12;100379.00;5050865;28;20098;-82
2022/01/12 00:42:47;;;;;;;1.15;1.15;;;;;;;-13.62;74.41;100367.75;5050821;28;20110;-81
2022/01/12 00:45:14;;;;;;;1.50;1.40;;;;;;;-13.65;74.58;100373.03;5051250;28;20451;-81
2022/01/12 00:47:41;;;;;;;1.40;1.30;;;;;;;-13.64;74.56;100373.91;5048929;28;20128;-81
2022/01/12 00:50:09;;;;;;;1.40;1.30;;;;;;;-13.69;74.77;100361.09;5050397;28;20515;-82
2022/01/12 00:52:36;;;;;;;1.40;1.30;;;;;;;-13.64;74.74;100374.75;5030330;28;20136;-81
2022/01/12 00:55:04;;;;;;;1.02;1.02;;;;;;;-13.66;74.61;100370.53;5047804;28;20049;-81
2022/01/12 00:57:31;;;;;;;1.20;1.20;;;;;;;-13.66;74.31;100360.97;5050267;28;20086;-81
2022/01/12 00:59:58;;;;;;;1.48;1.38;;;;;;;-13.70;73.98;100367.19;5050629;28;20053;-81
2022/01/12 01:02:25;;;;;;;1.38;1.27;;;;;;;-13.71;74.02;100367.25;5038638;28;20415;-83
2022/01/12 01:04:53;;;;;;;1.52;1.42;;;;;;;-13.76;74.03;100355.28;5025165;28;20048;-81
2022/01/12 01:07:20;;;;;;;1.55;1.45;;;;;;;-13.77;74.11;100352.75;5041959;28;20432;-80
2022/01/12 01:09:57;;;;;;;1.52;1.42;;;;;;;-13.82;74.11;100354.66;5045543;28;20144;-81
2022/01/12 01:12:25;;;;;;;1.50;1.40;;;;;;;-13.84;74.58;100353.91;5034433;28;20049;-82
2022/01/12 01:15:06;;;;;;;1.48;1.38;;;;;;;-13.86;74.55;100358.28;5021181;28;20048;-83
2022/01/12 01:25:49;;;;;;;1.35;1.25;;;;;;;-13.82;74.74;100359.84;5053208;28;20048;-84
2022/01/12 01:28:19;;;;;;;1.40;1.30;;;;;;;-13.89;74.91;100368.78;5036517;28;20075;-82
2022/01/12 01:30:46;;;;;;;1.23;1.20;;;;;;;-13.89;74.89;100372.22;5034314;28;20049;-84
2022/01/12 01:33:16;;;;;;;1.40;1.30;;;;;;;-13.90;75.05;100362.72;5053786;28;20136;-82
2022/01/12 01:35:52;;;;;;;1.40;1.30;;;;;;;-13.91;75.22;100370.59;5037000;28;20056;-84
2022/01/12 01:38:23;;;;;;;1.30;1.20;;;;;;;-13.90;75.17;100372.28;5045910;28;20052;-83
2022/01/12 01:40:51;;;;;;;1.30;1.20;;;;;;;-13.91;75.16;100361.03;5034405;28;20069;-84
2022/01/12 01:43:26;;;;;;;1.55;1.45;;;;;;;-13.88;75.19;100367.88;5034794;28;20049;-83
2022/01/12 01:54:14;;;;;;;1.30;1.20;;;;;;;-13.88;75.55;100360.09;5030413;28;20084;-84
2022/01/12 01:56:41;;;;;;;1.50;1.40;;;;;;;-13.93;75.84;100357.66;5052492;28;20111;-83
2022/01/12 01:59:08;;;;;;;1.33;1.23;;;;;;;-13.97;75.72;100356.09;5035959;28;20049;-83
2022/01/12 02:01:41;;;;;;;1.55;1.45;;;;;;;-14.02;75.44;100342.44;5031580;28;20423;-83
2022/01/12 02:04:08;;;;;;;1.40;1.30;;;;;;;-14.04;75.17;100350.28;5031371;28;20170;-83
2022/01/12 02:06:38;;;;;;;1.42;1.33;;;;;;;-14.05;75.08;100353.78;5031609;28;20389;-84
2022/01/12 02:09:05;;;;;;;1.50;1.40;;;;;;;-14.06;74.85;100352.06;5036683;28;20045;-84
2022/01/12 02:11:42;;;;;;;1.55;1.45;;;;;;;-14.07;74.80;100350.41;5032784;28;20068;-84
2022/01/12 02:14:15;;;;;;;1.30;1.23;;;;;;;-14.04;74.63;100355.47;5032833;28;20507;-84
2022/01/12 02:16:57;;;;;;;1.40;1.30;;;;;;;-13.99;74.84;100343.16;5047469;28;20059;-83
2022/01/12 02:36:15;;;;;;;1.42;1.33;;;;;;;-14.12;74.00;100336.75;5008958;28;20049;-84
2022/01/12 02:41:49;;;;;;;1.42;1.33;;;;;;;-14.13;74.39;100335.03;4972884;28;20051;-84
2022/01/12 02:55:19;;;;;;;1.55;1.45;;;;;;;-14.11;74.27;100320.25;4936775;29;20114;-83
2022/01/12 02:57:46;;;;;;;1.40;1.30;;;;;;;-14.13;74.37;100319.47;4953136;29;20532;-83
2022/01/12 03:00:16;;;;;;;1.38;1.27;;;;;;;-14.13;74.28;100321.22;4952948;29;20055;-83
2022/01/12 03:02:48;;;;;;;1.08;1.08;;;;;;;-14.15;74.13;100316.09;4952657;29;20075;-83
2022/01/12 03:05:44;;;;;;;1.10;1.10;;;;;;;-14.15;74.28;100308.31;4953025;29;20059;-83
2022/01/12 03:08:15;;;;;;;1.40;1.30;;;;;;;-14.11;74.27;100309.88;4952397;29;20071;-83
2022/01/12 03:10:42;;;;;;;1.45;1.35;;;;;;;-14.08;74.11;100317.53;4952396;29;20119;-83
2022/01/12 03:13:09;;;;;;;1.52;1.42;;;;;;;-14.15;73.94;100321.28;5015920;28;20072;-79
2022/01/12 03:15:40;;;;;;;1.40;1.30;;;;;;;-14.20;73.95;100307.66;5028808;28;20045;-80
2022/01/12 03:18:12;;;;;;;1.08;1.08;;;;;;;-14.20;74.51;100308.50;5034558;28;20045;-82
2022/01/12 03:20:39;;;;;;;1.40;1.30;;;;;;;-14.16;74.58;100317.00;5009880;28;20046;-81
2022/01/12 03:23:08;;;;;;;1.50;1.40;;;;;;;-14.14;74.45;100322.13;5035358;28;20044;-82
2022/01/12 03:25:35;;;;;;;1.25;1.20;;;;;;;-14.15;74.59;100313.50;5026647;28;20049;-81
2022/01/12 03:28:05;;;;;;;1.40;1.30;;;;;;;-14.13;74.47;100314.28;5014781;28;20064;-81
2022/01/12 03:31:35;;;;;;;1.25;1.20;;;;;;;-14.12;74.58;100315.16;5040080;28;20050;-80
2022/01/12 03:38:50;;;;;;;1.33;1.23;;;;;;;-14.14;74.33;100306.56;5030938;28;20063;-80
2022/01/12 03:41:17;;;;;;;1.58;1.48;;;;;;;-14.10;74.43;100316.78;5043881;28;20076;-80
2022/01/12 03:43:45;;;;;;;1.45;1.35;;;;;;;-14.10;74.04;100306.41;5032127;28;20044;-82
2022/01/12 03:46:15;;;;;;;1.10;1.10;;;;;;;-14.13;73.85;100309.09;5034447;28;20057;-82
2022/01/12 03:48:42;;;;;;;1.42;1.33;;;;;;;-14.11;73.88;100311.63;5052124;28;20040;-80
2022/01/12 03:51:09;;;;;;;1.40;1.30;;;;;;;-14.13;73.55;100301.31;5034416;28;20068;-85
2022/01/12 03:53:36;;;;;;;1.40;1.30;;;;;;;-14.16;73.58;100308.38;5050931;28;20136;-82
2022/01/12 03:56:04;;;;;;;1.30;1.20;;;;;;;-14.15;73.66;100316.09;5027849;28;20041;-86
2022/01/12 03:58:32;;;;;;;1.50;1.40;;;;;;;-14.12;73.76;100318.59;5031494;28;20049;-84
2022/01/12 04:01:01;;;;;;;1.30;1.20;;;;;;;-14.08;73.73;100317.53;5030618;28;20041;-85
2022/01/12 04:03:30;;;;;;;1.40;1.30;;;;;;;-14.08;73.59;100307.16;5028627;28;20534;-85
2022/01/12 04:08:42;;;;;;;1.30;1.20;;;;;;;-14.06;73.97;100313.16;5030184;28;20053;-84
2022/01/12 04:11:10;;;;;;;1.38;1.27;;;;;;;-14.01;73.96;100313.81;5047790;28;20053;-81
2022/01/12 04:13:37;;;;;;;1.10;1.10;;;;;;;-13.97;74.05;100320.59;5047855;28;20124;-82
2022/01/12 04:16:06;;;;;;;1.40;1.30;;;;;;;-13.99;74.10;100321.56;5029997;28;20478;-83
2022/01/12 04:18:35;;;;;;;1.50;1.40;;;;;;;-13.98;74.03;100318.06;5030866;28;20091;-82
2022/01/12 04:21:05;;;;;;;1.60;1.50;;;;;;;-13.97;73.90;100312.81;5033958;28;20048;-82
2022/01/12 04:23:35;;;;;;;1.45;1.35;;;;;;;-14.03;73.86;100315.63;5051513;28;20132;-84
2022/01/12 04:26:12;;;;;;;1.40;1.30;;;;;;;-14.01;73.90;100318.19;5050884;28;20049;-84
2022/01/12 04:28:42;;;;;;;1.40;1.30;;;;;;;-13.98;74.24;100308.53;5051886;28;20143;-84
2022/01/12 04:31:10;;;;;;;1.60;1.50;;;;;;;-14.00;74.35;100305.16;5034399;28;20508;-84
2022/01/12 04:33:39;;;;;;;1.38;1.27;;;;;;;-13.99;74.27;100311.19;5033712;28;20090;-85
2022/01/12 04:36:17;;;;;;;1.33;1.23;;;;;;;-14.04;74.24;100298.38;5035095;28;20569;-84
2022/01/12 04:38:45;;;;;;;1.60;1.50;;;;;;;-14.06;74.21;100309.72;5029419;28;20044;-85
2022/01/12 04:41:13;;;;;;;1.63;1.52;;;;;;;-14.05;74.05;100303.63;5032093;28;20049;-86
2022/01/12 04:43:43;;;;;;;1.08;1.08;;;;;;;-14.04;73.86;100310.50;5041327;28;20084;-86
2022/01/12 04:51:10;;;;;;;1.35;1.25;;;;;;;-14.06;73.56;100304.53;5033016;28;20045;-86
2022/01/12 04:53:37;;;;;;;1.40;1.30;;;;;;;-14.03;73.65;100315.63;5035618;28;20132;-86
2022/01/12 04:56:05;;;;;;;1.40;1.30;;;;;;;-14.02;73.50;100309.56;5037344;28;20455;-85
2022/01/12 04:58:32;;;;;;;1.50;1.40;;;;;;;-13.99;73.64;100318.97;5002667;28;20046;-86
2022/01/12 05:01:08;;;;;;;1.40;1.30;;;;;;;-14.01;73.65;100313.00;5018150;28;20051;-85
2022/01/12 05:06:50;;;;;;;1.40;1.30;;;;;;;-14.02;73.41;100312.16;5014218;28;20045;-85
2022/01/12 05:09:42;;;;;;;1.40;1.30;;;;;;;-14.02;73.31;100317.34;5016265;28;20056;-86
2022/01/12 05:15:06;;;;;;;1.30;1.20;;;;;;;-14.11;73.08;100317.66;5041813;28;20080;-84
2022/01/12 05:17:38;;;;;;;1.50;1.40;;;;;;;-14.13;73.08;100311.69;5049468;28;20060;-85
2022/01/12 05:20:06;;;;;;;1.30;1.20;;;;;;;-14.15;72.85;100310.91;5032542;28;20462;-82
2022/01/12 05:22:33;;;;;;;1.40;1.30;;;;;;;-14.20;72.86;100312.84;4998365;28;20100;-80
2022/01/12 05:25:01;;;;;;;1.50;1.40;;;;;;;-14.17;73.15;100309.28;5029817;28;20080;-81
2022/01/12 05:27:30;;;;;;;1.48;1.38;;;;;;;-14.18;73.01;100313.59;5022557;28;20116;-81
2022/01/12 05:29:57;;;;;;;1.40;1.30;;;;;;;-14.15;73.14;100313.50;5038832;28;20051;-83
2022/01/12 05:32:26;;;;;;;1.40;1.30;;;;;;;-14.13;73.06;100318.63;5045665;28;20523;-82
2022/01/12 05:34:58;;;;;;;1.50;1.40;;;;;;;-14.17;73.02;100320.50;5013568;28;20050;-83
2022/01/12 05:37:26;;;;;;;1.55;1.45;;;;;;;-14.16;73.10;100319.59;4996433;28;20465;-82
2022/01/12 05:39:53;;;;;;;1.42;1.33;;;;;;;-14.13;73.16;100319.47;5014352;28;20076;-82
2022/01/12 05:42:31;;;;;;;1.50;1.40;;;;;;;-14.18;73.25;100313.59;5027514;28;20049;-82
2022/01/12 05:44:59;;;;;;;1.45;1.35;;;;;;;-14.19;73.14;100314.50;5030227;28;20388;-85
2022/01/12 05:50:18;;;;;;;1.40;1.30;;;;;;;-14.15;73.08;100316.09;4969540;28;20047;-84
2022/01/12 05:52:45;;;;;;;1.52;1.42;;;;;;;-14.17;73.04;100312.72;4934066;28;20231;-83
2022/01/12 05:55:14;;;;;;;1.50;1.40;;;;;;;-14.15;73.05;100310.03;4956468;28;20109;-81
2022/01/12 05:57:42;;;;;;;1.50;1.40;;;;;;;-14.10;73.30;100313.31;4956002;28;20046;-80
2022/01/12 06:00:12;;;;;;;1.40;1.30;;;;;;;-14.06;73.13;100309.72;4956737;28;20050;-82
2022/01/12 06:02:48;;;;;;;1.40;1.30;;;;;;;-14.05;73.26;100307.09;4958482;28;20154;-80
2022/01/12 06:05:19;;;;;;;1.42;1.33;;;;;;;-14.02;73.32;100316.50;4956488;28;20545;-80
2022/01/12 06:07:48;;;;;;;1.38;1.27;;;;;;;-14.02;73.45;100317.34;4956282;28;20042;-81
2022/01/12 06:10:21;;;;;;;1.10;1.10;;;;;;;-13.99;73.05;100314.63;4954836;28;20049;-83
2022/01/12 06:12:49;;;;;;;1.60;1.50;;;;;;;-13.98;72.99;100318.91;4954967;28;20054;-83
2022/01/12 06:15:18;;;;;;;1.40;1.30;;;;;;;-13.96;73.27;100318.84;4955467;28;20053;-82
2022/01/12 06:17:47;;;;;;;1.60;1.50;;;;;;;-13.89;73.04;100327.25;4963197;28;20142;-82
2022/01/12 06:20:15;;;;;;;1.42;1.33;;;;;;;-13.87;72.89;100325.44;4956056;28;20138;-83
2022/01/12 06:23:01;;;;;;;1.50;1.40;;;;;;;-13.86;72.81;100312.41;4963300;28;20051;-83
2022/01/12 06:25:29;;;;;;;1.50;1.40;;;;;;;-13.80;72.60;100329.50;4956506;28;20043;-82
2022/01/12 06:28:09;;;;;;;1.50;1.40;;;;;;;-13.81;72.61;100330.41;5011758;28;20050;-82
2022/01/12 06:33:22;;;;;;;1.67;1.58;;;;;;;-13.81;72.17;100328.66;5030976;28;20083;-81
2022/01/12 06:35:50;;;;;;;1.33;1.23;;;;;;;-13.91;72.10;100324.72;5025707;28;20395;-81
2022/01/12 06:38:17;;;;;;;1.50;1.40;;;;;;;-13.93;72.52;100323.06;5033453;28;20063;-80
2022/01/12 06:40:45;;;;;;;1.40;1.30;;;;;;;-13.98;72.65;100338.81;5051484;28;20061;-80
2022/01/12 06:43:13;;;;;;;1.40;1.30;;;;;;;-14.01;72.29;100338.94;5032760;28;20045;-84
2022/01/12 06:45:56;;;;;;;1.13;1.13;;;;;;;-14.08;72.42;100338.31;4988000;28;20072;-82
2022/01/12 06:48:23;;;;;;;1.40;1.30;;;;;;;-14.20;72.47;100318.88;5033594;28;20052;-82
2022/01/12 06:50:50;;;;;;;1.65;1.55;;;;;;;-14.13;72.59;100334.19;5026152;28;20136;-83
2022/01/12 06:53:19;;;;;;;1.65;1.55;;;;;;;-14.17;72.66;100333.47;5045066;28;20055;-84
2022/01/12 06:55:49;;;;;;;1.60;1.50;;;;;;;-14.15;72.69;100342.06;4997100;28;20045;-84
2022/01/12 06:58:16;;;;;;;1.50;1.40;;;;;;;-14.20;72.68;100339.63;5027270;28;20050;-84
2022/01/12 07:00:43;;;;;;;1.50;1.40;;;;;;;-14.20;72.81;100334.44;5040536;28;20503;-83
2022/01/12 07:03:11;;;;;;;1.60;1.50;;;;;;;-14.08;72.77;100343.50;5028391;28;20049;-84
2022/01/12 07:05:47;;;;;;;1.50;1.40;;;;;;;-14.09;72.76;100336.63;5015288;28;20544;-85
2022/01/12 07:08:16;;;;;;;1.77;1.67;;;;;;;-14.04;72.73;100339.91;5050012;28;20052;-85
2022/01/12 07:10:45;;;;;;;1.38;1.27;;;;;;;-14.06;72.73;100331.31;5043695;28;20040;-85
2022/01/12 07:13:17;;;;;;;1.60;1.50;;;;;;;-14.07;72.80;100336.59;5024778;28;20185;-85
2022/01/12 07:15:45;;;;;;;1.40;1.30;;;;;;;-14.13;72.69;100336.78;5009835;28;20139;-84
2022/01/12 07:18:14;;;;;;;1.50;1.40;;;;;;;-14.11;72.44;100342.78;5005285;28;20103;-85
2022/01/12 07:20:42;;;;;;;1.50;1.40;;;;;;;-14.13;72.38;100345.41;5027293;28;20057;-84
2022/01/12 07:23:11;;;;;;;1.63;1.52;;;;;;;-14.06;72.36;100330.47;5018896;28;20424;-84
2022/01/12 07:25:38;;;;;;;1.60;1.50;;;;;;;-13.97;72.41;100336.19;5045497;28;20566;-84
2022/01/12 07:28:06;;;;;;;1.60;1.50;;;;;;;-13.91;72.29;100329.91;5024450;28;20507;-84
2022/01/12 07:30:33;;;;;;;1.70;1.60;;;;;;;-13.92;72.11;100324.75;5042576;28;20049;-86
2022/01/12 07:33:00;;;;;;;1.50;1.40;;;;;;;-13.97;72.15;100333.59;5043046;28;20041;-86
2022/01/12 07:35:27;;;;;;;1.50;1.40;;;;;;;-14.00;72.39;100331.09;4686402;28;9999718;-86
2022/01/12 07:37:55;;;;;;;1.38;1.27;;;;;;;-13.95;72.34;100327.47;5039915;28;20128;-86
2022/01/12 07:40:22;;;;;;;1.58;1.48;;;;;;;-13.93;72.19;100330.88;5024631;28;20044;-89
2022/01/12 07:42:51;;;;;;;1.50;1.40;;;;;;;-13.93;71.80;100338.66;5031464;28;20051;-87
2022/01/12 07:45:19;;;;;;;1.10;1.10;;;;;;;-13.94;71.41;100330.03;5048166;28;20087;-87
2022/01/12 07:47:46;;;;;;;1.75;1.65;;;;;;;-14.05;71.29;100332.16;5039968;28;20253;-88
2022/01/12 07:50:14;;;;;;;1.52;1.42;;;;;;;-14.11;71.31;100333.22;5044322;28;20049;-86
2022/01/12 07:52:42;;;;;;;1.55;1.45;;;;;;;-14.11;71.15;100327.19;5040492;28;20802;-84
2022/01/12 07:55:09;;;;;;;1.58;1.48;;;;;;;-14.14;71.52;100333.34;5037256;28;20065;-82
2022/01/12 07:57:36;;;;;;;1.58;1.48;;;;;;;-14.07;71.33;100323.59;5017351;28;20962;-82
2022/01/12 08:00:06;;;;;;;1.50;1.40;;;;;;;-14.07;71.11;100314.06;5040203;28;20136;-85
2022/01/12 08:02:37;;;;;;;1.73;1.63;;;;;;;-13.93;70.68;100315.28;5027598;28;20140;-83
2022/01/12 08:05:05;;;;;;;1.63;1.52;;;;;;;-13.94;70.58;100324.84;5032628;28;20049;-84
2022/01/12 08:07:36;;;;;;;1.63;1.52;;;;;;;-13.92;70.83;100323.03;5037884;28;20532;-81
2022/01/12 08:10:04;;;;;;;1.45;1.35;;;;;;;-13.85;70.48;100314.09;5035455;28;20056;-85
2022/01/12 08:12:32;;;;;;;1.70;1.60;;;;;;;-13.81;70.28;100314.84;5037263;28;20053;-85
2022/01/12 08:14:59;;;;;;;1.75;1.65;;;;;;;-13.43;69.34;100299.53;5040168;28;20040;-85
2022/01/12 08:17:29;;;;;;;2.17;1.98;;;;;;;-12.78;68.42;100298.53;5050441;28;20136;-84
2022/01/12 08:19:57;;;;;;;2.00;1.90;;;;;;;-11.92;66.52;100299.09;5019731;28;20077;-84
2022/01/12 08:22:25;;;;;;;1.90;1.80;;;;;;;-11.35;64.96;100294.63;5014370;28;20499;-85
2022/01/12 08:24:55;;;;;;;1.83;1.73;;;;;;;-10.95;63.87;100290.09;4683480;28;9999715;-83
2022/01/12 08:27:22;;;;;;;1.88;1.77;;;;;;;-10.75;62.95;100286.47;5029377;28;20057;-84
2022/01/12 08:29:53;;;;;;;1.63;1.52;;;;;;;-10.83;62.85;100288.63;5046706;28;20541;-84
2022/01/12 08:32:20;;;;;;;1.83;1.73;;;;;;;-10.79;63.22;100290.16;5027907;28;20049;-83
2022/01/12 08:34:47;;;;;;;1.50;1.40;;;;;;;-11.10;62.95;100288.25;5028947;28;20103;-89
2022/01/12 08:37:16;;;;;;;1.77;1.67;;;;;;;-11.90;64.33;100292.91;5048501;28;20048;-83
2022/01/12 08:39:43;;;;;;;1.60;1.50;;;;;;;-11.87;64.62;100287.56;5050702;28;20449;-85
2022/01/12 08:42:15;;;;;;;1.50;1.40;;;;;;;-12.32;65.64;100299.13;5003237;28;20049;-86
2022/01/12 08:44:47;;;;;;;1.77;1.67;;;;;;;-12.72;66.34;100297.41;5051060;28;20120;-84
2022/01/12 08:47:15;;;;;;;1.52;1.42;;;;;;;-13.16;67.31;100274.16;5053395;28;20102;-84
2022/01/12 08:49:42;;;;;;;1.60;1.50;;;;;;;-13.16;67.63;100293.19;5051359;28;20048;-83
2022/01/12 08:52:10;;;;;;;1.60;1.50;;;;;;;-13.24;67.92;100294.38;5048395;28;20052;-87
2022/01/12 08:54:37;;;;;;;1.50;1.40;;;;;;;-13.29;68.33;100285.97;5032969;28;20141;-87
2022/01/12 08:57:04;;;;;;;1.48;1.38;;;;;;;-13.30;68.58;100285.13;5030917;28;20044;-87
2022/01/12 08:59:32;;;;;;;1.50;1.40;;;;;;;-13.43;68.50;100279.56;5012623;28;20526;-86
2022/01/12 09:01:59;;;;;;;1.70;1.60;;;;;;;-13.35;68.61;100271.47;5019860;28;20045;-86
2022/01/12 09:04:27;;;;;;;1.60;1.50;;;;;;;-13.19;68.48;100282.91;5019308;28;20195;-86
2022/01/12 09:06:57;;;;;;;1.60;1.50;;;;;;;-13.11;68.28;100282.59;5030611;28;20486;-84
2022/01/12 09:09:25;;;;;;;1.65;1.55;;;;;;;-12.67;67.62;100279.88;5035995;28;20041;-84
2022/01/12 09:11:54;;;;;;;1.60;1.50;;;;;;;-12.88;67.35;100266.88;5027245;28;20045;-85
2022/01/12 09:14:21;;;;;;;1.60;1.50;;;;;;;-13.08;67.60;100279.03;5047833;28;20048;-84
2022/01/12 09:16:54;;;;;;;1.10;1.10;;;;;;;-13.37;68.22;100262.91;5013242;28;20147;-85
2022/01/12 09:19:23;;;;;;;1.60;1.50;;;;;;;-12.43;67.70;100277.94;5043759;28;20053;-86
2022/01/12 09:21:50;;;;;;;1.52;1.42;;;;;;;-12.10;66.16;100262.59;5033570;28;20095;-85
2022/01/12 09:24:17;;;;;;;1.80;1.70;;;;;;;-11.81;65.48;100261.19;5036261;28;20106;-85
2022/01/12 09:26:45;;;;;;;1.90;1.80;;;;;;;-11.15;64.50;100265.00;5027285;28;20147;-85
2022/01/12 09:29:12;;;;;;;1.50;1.40;;;;;;;-11.31;63.11;100269.28;5014272;28;20741;-86
2022/01/12 09:31:42;;;;;;;2.20;2.00;;;;;;;-10.22;61.92;100254.09;5030809;28;20049;-84
2022/01/12 09:34:09;;;;;;;2.40;2.20;;;;;;;-9.13;59.93;100255.91;5034796;28;20053;-81
2022/01/12 09:36:37;;;;;;;2.03;1.90;;;;;;;-8.63;58.05;100238.13;5041093;28;20072;-83
2022/01/12 09:39:06;;;;;;;2.20;2.00;;;;;;;-8.14;57.55;100207.16;5039149;28;20053;-81
2022/01/12 09:41:33;;;;;;;2.40;2.20;;;;;;;-8.11;55.87;100209.56;5060980;28;20056;-87
2022/01/12 09:44:01;;;;;;;2.00;1.90;;;;;;;-7.89;55.74;100214.31;5014170;28;20045;-83
2022/01/12 09:46:29;;;;;;;2.15;1.98;;;;;;;-7.92;54.52;100213.69;5053171;28;20120;-84
2022/01/12 09:48:59;;;;;;;1.92;1.83;;;;;;;-7.76;54.67;100214.38;5024239;28;20560;-86
2022/01/12 09:51:26;;;;;;;1.70;1.60;;;;;;;-7.44;54.17;100203.59;5043134;28;20048;-82
2022/01/12 09:53:53;;;;;;;2.20;2.00;;;;;;;-7.22;54.17;100198.59;5001516;28;20103;-85
2022/01/12 09:56:24;;;;;;;1.60;1.50;;;;;;;-7.03;53.33;100200.00;5050516;28;20087;-87
2022/01/12 09:58:57;;;;;;;1.83;1.73;;;;;;;-6.76;52.45;100198.16;5032704;28;20771;-87
2022/01/12 10:01:34;;;;;;;1.70;1.60;;;;;;;-6.87;52.06;100197.19;5045587;28;20048;-86
2022/01/12 10:04:06;;;;;;;1.63;1.52;;;;;;;-6.61;52.29;100201.50;5054368;28;20064;-87
2022/01/12 10:06:39;;;;;;;1.60;1.50;;;;;;;-6.46;52.27;100210.09;5047808;28;20052;-85
2022/01/12 10:09:06;;;;;;;1.80;1.70;;;;;;;-6.46;52.05;100215.34;5038916;28;20052;-86
2022/01/12 10:11:33;;;;;;;1.50;1.40;;;;;;;-6.89;51.13;100206.94;5026072;28;20762;-84
2022/01/12 10:14:02;;;;;;;1.90;1.80;;;;;;;-6.84;52.08;100195.19;5038363;28;20060;-86
2022/01/12 10:16:29;;;;;;;1.80;1.70;;;;;;;-7.05;52.80;100200.09;5040171;28;20052;-86
2022/01/12 10:18:59;;;;;;;1.70;1.60;;;;;;;-6.75;52.18;100204.22;5044921;28;20498;-85
2022/01/12 10:21:34;;;;;;;1.50;1.40;;;;;;;-6.89;51.21;100202.53;4977716;28;20060;-87
2022/01/12 10:24:02;;;;;;;1.00;1.00;;;;;;;-7.31;52.55;100208.88;4997250;28;20111;-82
2022/01/12 10:26:38;;;;;;;1.50;1.40;;;;;;;-7.66;53.32;100201.50;5047452;28;20099;-90
2022/01/12 10:29:21;;;;;;;1.70;1.60;;;;;;;-6.74;52.23;100197.19;5009982;28;20083;-86
2022/01/12 10:32:00;;;;;;;1.83;1.73;;;;;;;-6.20;50.91;100192.53;5050179;28;20594;-87
2022/01/12 10:34:38;;;;;;;1.35;1.25;;;;;;;-5.94;50.29;100185.41;5035979;28;20053;-84
2022/01/12 10:37:12;;;;;;;1.40;1.30;;;;;;;-5.75;49.75;100182.25;5023695;28;20061;-86
2022/01/12 10:39:42;;;;;;;1.00;1.00;;;;;;;-6.32;49.92;100193.38;5020292;28;20042;-87
2022/01/12 10:42:15;;;;;;;1.60;1.50;;;;;;;-6.09;49.85;100178.63;5028246;28;20068;-90
2022/01/12 10:44:51;;;;;;;1.77;1.67;;;;;;;-5.81;49.64;100189.75;5047748;28;20045;-88
2022/01/12 10:47:22;;;;;;;1.33;1.25;;;;;;;-5.66;49.08;100181.59;4998082;28;20064;-85
2022/01/12 10:49:55;;;;;;;1.55;1.45;;;;;;;-5.70;49.33;100181.91;5044405;28;20052;-86
2022/01/12 10:52:31;;;;;;;1.60;1.50;;;;;;;-5.46;49.26;100180.13;5044666;28;20115;-87
2022/01/12 10:55:04;;;;;;;1.10;1.10;;;;;;;-5.17;48.83;100174.47;5019725;28;20037;-86
2022/01/12 10:57:38;;;;;;;1.38;1.27;;;;;;;-5.42;48.29;100179.88;5019779;28;20053;-88
2022/01/12 11:00:24;;;;;;;1.42;1.33;;;;;;;-5.55;48.66;100177.31;5019253;28;20116;-86
2022/01/12 11:02:55;;;;;;;0.90;0.90;;;;;;;-6.51;50.46;100180.69;5037196;28;20048;-88
2022/01/12 11:05:29;;;;;;;1.15;1.13;;;;;;;-7.82;52.79;100179.84;5035196;28;20053;-89
2022/01/12 11:07:57;;;;;;;1.00;1.00;;;;;;;-8.53;53.65;100181.69;5042500;28;20128;-87
2022/01/12 11:10:27;;;;;;;0.90;0.90;;;;;;;-9.23;55.58;100178.91;5040885;28;20072;-86
2022/01/12 11:12:54;;;;;;;1.25;1.20;;;;;;;-9.52;56.78;100157.06;5038623;28;20404;-85
2022/01/12 11:15:21;;;;;;;1.58;1.48;;;;;;;-8.68;55.75;100166.91;5039745;28;20076;-85
2022/01/12 11:17:54;;;;;;;1.65;1.55;;;;;;;-7.37;53.73;100143.69;5039571;28;20067;-88
2022/01/12 11:20:30;;;;;;;1.40;1.30;;;;;;;-6.54;51.76;100134.47;4986733;28;20380;-87
2022/01/12 11:23:06;;;;;;;1.50;1.40;;;;;;;-6.38;50.41;100144.75;5041318;28;20061;-87
2022/01/12 11:25:36;;;;;;;1.40;1.30;;;;;;;-6.07;50.29;100136.47;5023807;28;20079;-87
2022/01/12 11:28:09;;;;;;;1.35;1.25;;;;;;;-5.99;49.65;100139.38;5065147;28;20141;-91
2022/01/12 11:30:45;;;;;;;1.38;1.27;;;;;;;-6.11;49.85;100130.56;5074101;28;20056;-87
2022/01/12 11:33:14;;;;;;;1.40;1.30;;;;;;;-6.24;49.91;100135.88;5060470;28;20048;-89
2022/01/12 11:35:51;;;;;;;1.40;1.30;;;;;;;-6.07;49.83;100133.84;5040575;28;20042;-88
2022/01/12 11:38:28;;;;;;;1.33;1.23;;;;;;;-6.29;49.88;100132.72;5035845;28;20071;-89
2022/01/12 11:41:13;;;;;;;1.45;1.35;;;;;;;-5.94;50.18;100138.09;5043088;28;20199;-87
2022/01/12 11:43:46;;;;;;;1.08;1.08;;;;;;;-5.90;49.50;100128.13;5024225;28;20419;-89
2022/01/12 11:46:18;;;;;;;1.50;1.40;;;;;;;-5.84;49.42;100140.84;5051338;28;20056;-87
2022/01/12 11:48:59;;;;;;;1.40;1.30;;;;;;;-6.06;49.33;100138.13;5019221;28;20545;-88
2022/01/12 11:51:37;;;;;;;1.10;1.10;;;;;;;-6.26;49.94;100139.56;4999654;28;20045;-89
2022/01/12 11:54:13;;;;;;;1.40;1.30;;;;;;;-6.40;50.22;100125.63;5039814;28;20049;-87
2022/01/12 11:57:04;;;;;;;1.40;1.30;;;;;;;-6.69;50.45;100130.28;5041980;28;20073;-86
2022/01/12 11:59:49;;;;;;;1.08;1.08;;;;;;;-7.35;50.67;100131.31;5046454;28;20045;-86
2022/01/12 12:02:30;;;;;;;1.45;1.35;;;;;;;-7.81;52.42;100129.13;5011664;28;20711;-87
2022/01/12 12:05:02;;;;;;;1.20;1.20;;;;;;;-7.22;51.30;100127.75;5043047;28;20052;-88
2022/01/12 12:08:04;;;;;;;1.10;1.10;;;;;;;-6.97;51.39;100119.06;5025156;28;20056;-87
2022/01/12 12:10:37;;;;;;;1.10;1.10;;;;;;;-6.93;51.03;100111.00;4943263;29;20797;-87
2022/01/12 12:13:05;;;;;;;1.40;1.30;;;;;;;-7.07;50.84;100094.38;4923308;29;20061;-88
2022/01/12 12:15:34;;;;;;;1.10;1.10;;;;;;;-7.09;51.06;100090.19;4923177;29;20059;-87
2022/01/12 12:18:04;;;;;;;1.20;1.20;;;;;;;-7.45;50.36;100097.00;4947977;29;20055;-87
2022/01/12 12:20:34;;;;;;;1.33;1.23;;;;;;;-7.64;51.65;100081.66;4944177;29;20129;-85
2022/01/12 12:23:01;;;;;;;1.38;1.27;;;;;;;-7.70;51.59;100082.06;4924108;29;20043;-84
2022/01/12 12:25:31;;;;;;;1.30;1.20;;;;;;;-7.87;51.78;100080.56;4937856;29;20046;-85
2022/01/12 12:28:01;;;;;;;1.00;1.00;;;;;;;-7.82;52.13;100085.47;4903807;29;20115;-86
2022/01/12 12:30:30;;;;;;;1.10;1.10;;;;;;;-7.82;52.77;100082.84;4943225;29;20048;-87
2022/01/12 12:33:14;;;;;;;1.00;1.00;;;;;;;-7.85;52.88;100073.41;4924968;29;20047;-87
2022/01/12 12:35:43;;;;;;;1.38;1.27;;;;;;;-8.09;53.11;100081.94;4909384;29;20051;-87
2022/01/12 12:38:13;;;;;;;0.98;0.98;;;;;;;-8.16;53.58;100077.22;4935803;29;20044;-87
2022/01/12 12:40:53;;;;;;;0.98;0.98;;;;;;;-8.24;53.55;100064.59;4922793;29;20073;-88
2022/01/12 12:43:41;;;;;;;1.00;1.00;;;;;;;-8.32;53.75;100087.84;4914951;29;20051;-85
2022/01/12 12:46:14;;;;;;;1.00;1.00;;;;;;;-8.44;53.96;100088.63;4937820;28;20091;-86
2022/01/12 12:48:43;;;;;;;1.07;1.07;;;;;;;-8.72;54.25;100085.97;5020992;28;20061;-87
2022/01/12 12:51:14;;;;;;;0.85;0.85;;;;;;;-8.82;54.93;100082.25;5027492;28;20041;-87
2022/01/12 12:53:44;;;;;;;0.95;0.95;;;;;;;-9.12;54.99;100078.88;4995430;28;20049;-89
2022/01/12 12:56:17;;;;;;;1.13;1.13;;;;;;;-9.49;55.83;100078.50;5025234;28;20045;-84